createdAt,value
2018-06-21T00:01:08.825Z,19.90
2018-06-21T00:03:37.274Z,19.92
2018-06-21T00:06:05.688Z,19.90
2018-06-21T00:08:34.156Z,19.86
2018-06-21T00:11:02.528Z,19.82
2018-06-21T00:13:31.021Z,19.81
2018-06-21T00:15:59.428Z,19.85
2018-06-21T00:18:27.869Z,19.84
2018-06-21T00:20:56.392Z,19.81
2018-06-21T00:23:24.889Z,19.76
2018-06-21T00:25:53.559Z,19.76
2018-06-21T00:28:22.174Z,19.79
2018-06-21T00:30:50.699Z,19.83
2018-06-21T00:33:19.120Z,19.82
2018-06-21T00:35:47.577Z,19.73
2018-06-21T00:38:16.037Z,19.62
2018-06-21T00:40:44.458Z,19.53
2018-06-21T00:43:12.971Z,19.51
2018-06-21T00:45:41.465Z,19.54
2018-06-21T00:48:09.918Z,19.55
2018-06-21T00:50:38.356Z,19.54
2018-06-21T00:53:06.697Z,19.48
2018-06-21T00:55:46.457Z,19.42
2018-06-21T00:58:14.911Z,19.42
2018-06-21T01:00:43.259Z,19.41
2018-06-21T01:03:11.701Z,19.48
2018-06-21T01:05:40.170Z,19.44
2018-06-21T01:08:08.640Z,19.41
2018-06-21T01:10:37.063Z,19.36
2018-06-21T01:13:05.687Z,19.29
2018-06-21T01:15:34.092Z,19.24
2018-06-21T01:18:02.467Z,19.13
2018-06-21T01:20:30.884Z,19.10
2018-06-21T01:22:59.273Z,19.09
2018-06-21T01:25:27.816Z,19.11
2018-06-21T01:27:56.291Z,19.05
2018-06-21T01:30:24.629Z,19.00
2018-06-21T01:32:53.175Z,18.96
2018-06-21T01:35:21.651Z,18.94
2018-06-21T01:37:49.931Z,18.89
2018-06-21T01:40:18.266Z,18.85
2018-06-21T01:42:46.660Z,18.82
2018-06-21T01:45:15.075Z,18.80
2018-06-21T01:47:43.392Z,18.84
2018-06-21T01:50:11.800Z,18.86
2018-06-21T01:52:40.155Z,18.89
2018-06-21T01:55:08.575Z,18.91
2018-06-21T01:57:36.919Z,18.96
2018-06-21T02:00:05.395Z,19.01
2018-06-21T02:02:33.794Z,19.07
2018-06-21T02:05:02.178Z,19.08
2018-06-21T02:07:30.487Z,19.09
2018-06-21T02:09:58.922Z,19.12
2018-06-21T02:12:27.243Z,19.15
2018-06-21T02:14:55.633Z,19.18
2018-06-21T02:17:24.006Z,19.16
2018-06-21T02:19:52.367Z,19.10
2018-06-21T02:22:20.673Z,18.99
2018-06-21T02:24:49.761Z,18.93
2018-06-21T02:27:18.112Z,18.84
2018-06-21T02:29:46.558Z,18.77
2018-06-21T02:32:14.925Z,18.77
2018-06-21T02:34:43.228Z,18.73
2018-06-21T02:37:11.694Z,18.68
2018-06-21T02:39:40.077Z,18.55
2018-06-21T02:42:08.428Z,18.43
2018-06-21T02:44:36.732Z,18.37
2018-06-21T02:47:05.307Z,18.33
2018-06-21T02:49:34.441Z,18.32
2018-06-21T02:52:02.862Z,18.28
2018-06-21T02:54:31.318Z,18.28
2018-06-21T02:56:59.688Z,18.28
2018-06-21T02:59:28.006Z,18.26
2018-06-21T03:01:57.040Z,18.29
2018-06-21T03:04:25.424Z,18.26
2018-06-21T03:06:53.838Z,18.21
2018-06-21T03:09:22.254Z,18.15
2018-06-21T03:11:50.587Z,18.12
2018-06-21T03:14:18.940Z,18.11
2018-06-21T03:16:47.275Z,18.12
2018-06-21T03:19:15.694Z,18.07
2018-06-21T03:21:44.149Z,18.05
2018-06-21T03:24:12.522Z,18.06
2018-06-21T03:26:40.833Z,18.08
2018-06-21T03:29:09.173Z,18.10
2018-06-21T03:31:37.947Z,18.14
2018-06-21T03:34:06.510Z,18.16
2018-06-21T03:36:34.994Z,18.15
2018-06-21T03:39:03.659Z,18.14
2018-06-21T03:41:31.998Z,18.14
2018-06-21T03:44:00.334Z,18.08
2018-06-21T03:46:28.680Z,18.09
2018-06-21T03:48:57.032Z,18.12
2018-06-21T03:51:25.412Z,18.08
2018-06-21T03:53:53.862Z,18.09
2018-06-21T03:56:22.184Z,18.10
2018-06-21T03:58:50.554Z,18.17
2018-06-21T04:01:18.946Z,18.18
2018-06-21T04:03:47.257Z,18.21
2018-06-21T04:06:15.659Z,18.26
2018-06-21T04:08:44.066Z,18.28
2018-06-21T04:11:12.501Z,18.31
2018-06-21T04:13:41.539Z,18.37
2018-06-21T04:16:10.458Z,18.48
2018-06-21T04:18:38.803Z,18.59
2018-06-21T04:21:09.183Z,18.63
2018-06-21T04:23:37.591Z,18.68
2018-06-21T04:26:06.779Z,18.70
2018-06-21T04:28:35.723Z,18.80
2018-06-21T04:31:06.218Z,18.84
2018-06-21T04:33:35.690Z,18.89
2018-06-21T04:36:04.149Z,19.18
2018-06-21T04:38:32.452Z,19.54
2018-06-21T04:41:00.742Z,19.74
2018-06-21T04:43:29.149Z,19.91
2018-06-21T04:45:57.536Z,20.19
2018-06-21T04:48:25.854Z,20.32
2018-06-21T04:50:54.318Z,20.48
2018-06-21T04:53:22.607Z,20.75
2018-06-21T04:55:50.993Z,20.90
2018-06-21T04:58:19.329Z,21.07
2018-06-21T05:00:47.708Z,21.23
2018-06-21T05:03:16.325Z,21.46
2018-06-21T05:05:45.463Z,21.48
2018-06-21T05:08:13.857Z,21.74
2018-06-21T05:10:42.406Z,21.74
2018-06-21T05:13:10.929Z,21.87
2018-06-21T05:15:39.355Z,21.91
2018-06-21T05:18:07.778Z,22.04
2018-06-21T05:20:37.420Z,22.10
2018-06-21T05:23:05.977Z,22.17
2018-06-21T05:25:34.387Z,22.39
2018-06-21T05:28:02.704Z,22.33
2018-06-21T05:30:31.157Z,22.44
2018-06-21T05:32:59.718Z,22.37
2018-06-21T05:35:28.098Z,22.43
2018-06-21T05:37:57.238Z,22.50
2018-06-21T05:40:33.708Z,22.60
2018-06-21T05:43:02.752Z,22.71
2018-06-21T05:45:31.176Z,22.81
2018-06-21T05:48:02.080Z,23.01
2018-06-21T05:50:31.634Z,23.24
2018-06-21T05:53:00.429Z,23.38
2018-06-21T05:55:29.655Z,23.38
2018-06-21T05:57:58.068Z,23.65
2018-06-21T06:00:26.393Z,23.61
2018-06-21T06:02:54.757Z,23.95
2018-06-21T06:05:22.988Z,23.99
2018-06-21T06:07:51.651Z,24.31
2018-06-21T06:10:20.246Z,24.45
2018-06-21T06:12:48.774Z,24.42
2018-06-21T06:15:17.014Z,24.33
2018-06-21T06:17:45.466Z,24.04
2018-06-21T06:20:13.857Z,24.09
2018-06-21T06:22:42.269Z,24.16
2018-06-21T06:25:10.824Z,24.35
2018-06-21T06:27:39.133Z,24.41
2018-06-21T06:30:07.948Z,24.51
2018-06-21T06:32:36.397Z,24.70
2018-06-21T06:35:04.686Z,25.03
2018-06-21T06:37:33.046Z,25.13
2018-06-21T06:40:01.346Z,25.02
2018-06-21T06:42:29.764Z,25.15
2018-06-21T06:44:58.065Z,25.19
2018-06-21T06:47:26.827Z,25.21
2018-06-21T06:49:55.161Z,25.20
2018-06-21T06:52:23.699Z,25.23
2018-06-21T06:54:52.140Z,25.25
2018-06-21T06:57:20.408Z,25.35
2018-06-21T06:59:48.704Z,25.53
2018-06-21T07:02:17.214Z,25.54
2018-06-21T07:04:45.597Z,25.64
2018-06-21T07:07:13.965Z,25.64
2018-06-21T07:09:42.454Z,25.61
2018-06-21T07:12:10.736Z,25.75
2018-06-21T07:14:39.052Z,25.92
2018-06-21T07:17:07.520Z,26.00
2018-06-21T07:19:35.809Z,26.04
2018-06-21T07:22:04.209Z,26.20
2018-06-21T07:24:32.556Z,26.20
2018-06-21T07:27:00.978Z,26.27
2018-06-21T07:29:29.265Z,26.33
2018-06-21T07:31:57.666Z,26.39
2018-06-21T07:34:25.986Z,26.45
2018-06-21T07:36:54.390Z,26.30
2018-06-21T07:39:22.724Z,26.53
2018-06-21T07:41:51.184Z,26.55
2018-06-21T07:44:19.449Z,26.48
2018-06-21T07:46:47.797Z,26.73
2018-06-21T07:49:16.182Z,26.80
2018-06-21T07:51:44.589Z,26.94
2018-06-21T07:54:12.931Z,26.94
2018-06-21T07:56:41.549Z,26.72
2018-06-21T07:59:10.124Z,27.08
2018-06-21T08:01:38.497Z,27.01
2018-06-21T08:04:06.925Z,26.79
2018-06-21T08:06:35.312Z,26.88
2018-06-21T08:09:04.561Z,27.29
2018-06-21T08:11:32.857Z,26.93
2018-06-21T08:14:01.176Z,26.72
2018-06-21T08:16:29.548Z,27.12
2018-06-21T08:18:57.945Z,26.64
2018-06-21T08:21:26.330Z,26.87
2018-06-21T08:23:54.606Z,26.60
2018-06-21T08:26:22.933Z,26.74
2018-06-21T08:28:51.342Z,26.73
2018-06-21T08:31:19.657Z,26.72
2018-06-21T08:33:48.587Z,26.65
2018-06-21T08:36:17.163Z,26.61
2018-06-21T08:38:45.459Z,26.56
2018-06-21T08:41:13.765Z,27.18
2018-06-21T08:43:42.152Z,26.85
2018-06-21T08:46:10.583Z,27.20
2018-06-21T08:48:38.895Z,27.09
2018-06-21T08:51:07.393Z,26.77
2018-06-21T08:53:35.767Z,26.58
2018-06-21T08:56:04.229Z,26.66
2018-06-21T08:58:32.618Z,26.50
2018-06-21T09:01:00.969Z,26.66
2018-06-21T09:03:29.435Z,26.56
2018-06-21T09:05:57.776Z,26.55
2018-06-21T09:08:26.118Z,26.11
2018-06-21T09:10:54.417Z,26.10
2018-06-21T09:13:22.812Z,26.44
2018-06-21T09:15:51.058Z,26.88
2018-06-21T09:18:19.389Z,26.78
2018-06-21T09:20:47.877Z,27.13
2018-06-21T09:23:16.169Z,27.09
2018-06-21T09:25:44.572Z,27.10
2018-06-21T09:28:12.820Z,27.25
2018-06-21T09:30:41.127Z,26.87
2018-06-21T09:33:09.604Z,26.87
2018-06-21T09:35:38.048Z,26.58
2018-06-21T09:38:14.778Z,26.93
2018-06-21T09:40:48.559Z,26.35
2018-06-21T09:43:22.225Z,26.47
2018-06-21T09:45:55.920Z,26.17
2018-06-21T09:48:31.720Z,26.61
2018-06-21T09:51:01.069Z,26.35
2018-06-21T09:53:29.948Z,26.50
2018-06-21T09:55:59.557Z,26.55
2018-06-21T09:58:27.968Z,26.60
2018-06-21T10:01:02.929Z,27.23
2018-06-21T10:03:31.802Z,27.09
2018-06-21T10:06:00.076Z,27.61
2018-06-21T10:08:28.617Z,27.64
2018-06-21T10:10:56.977Z,27.33
2018-06-21T10:13:25.283Z,27.47
2018-06-21T10:15:54.082Z,27.12
2018-06-21T10:18:22.352Z,27.92
2018-06-21T10:20:50.927Z,27.83
2018-06-21T10:23:19.257Z,27.97
2018-06-21T10:25:47.645Z,28.37
2018-06-21T10:28:15.971Z,28.41
2018-06-21T10:30:44.246Z,28.50
2018-06-21T10:33:12.671Z,28.70
2018-06-21T10:35:41.036Z,28.85
2018-06-21T10:38:09.343Z,28.29
2018-06-21T10:40:37.636Z,28.17
2018-06-21T10:43:06.251Z,28.37
2018-06-21T10:45:34.823Z,28.02
2018-06-21T10:48:04.253Z,28.49
2018-06-21T10:50:32.582Z,28.25
2018-06-21T10:53:00.932Z,27.80
2018-06-21T10:55:29.357Z,28.15
2018-06-21T10:57:57.673Z,28.43
2018-06-21T11:00:26.053Z,28.84
2018-06-21T11:02:54.409Z,28.78
2018-06-21T11:05:22.742Z,28.08
2018-06-21T11:07:51.197Z,28.53
2018-06-21T11:10:20.056Z,28.27
2018-06-21T11:12:48.411Z,28.86
2018-06-21T11:15:16.690Z,28.54
2018-06-21T11:17:45.044Z,27.92
2018-06-21T11:20:13.350Z,28.14
2018-06-21T11:22:41.850Z,28.18
2018-06-21T11:25:10.139Z,28.43
2018-06-21T11:27:38.472Z,28.24
2018-06-21T11:30:07.477Z,27.66
2018-06-21T11:32:35.816Z,27.96
2018-06-21T11:35:04.291Z,27.97
2018-06-21T11:37:32.525Z,27.75
2018-06-21T11:40:00.939Z,28.33
2018-06-21T11:42:29.298Z,28.53
2018-06-21T11:44:57.623Z,28.11
2018-06-21T11:47:25.974Z,28.60
2018-06-21T11:49:55.660Z,29.20
2018-06-21T11:52:23.975Z,28.90
2018-06-21T11:54:52.289Z,28.33
2018-06-21T11:57:20.742Z,28.05
2018-06-21T11:59:49.275Z,27.99
2018-06-21T12:02:17.553Z,29.14
2018-06-21T12:04:45.910Z,29.18
2018-06-21T12:07:15.449Z,28.10
2018-06-21T12:09:43.780Z,27.97
2018-06-21T12:12:12.308Z,29.44
2018-06-21T12:14:40.669Z,30.95
2018-06-21T12:17:08.957Z,32.12
2018-06-21T12:19:37.280Z,32.01
2018-06-21T12:22:05.974Z,32.18
2018-06-21T12:24:34.244Z,32.09
2018-06-21T12:27:02.625Z,31.91
2018-06-21T12:29:30.972Z,31.38
2018-06-21T12:31:59.964Z,31.69
2018-06-21T12:34:28.317Z,30.99
2018-06-21T12:36:56.873Z,30.94
2018-06-21T12:39:25.199Z,31.45
2018-06-21T12:41:53.575Z,31.18
2018-06-21T12:44:22.309Z,31.35
2018-06-21T12:46:50.621Z,31.74
2018-06-21T12:49:18.984Z,32.75
2018-06-21T12:51:47.271Z,32.21
2018-06-21T12:54:15.748Z,30.98
2018-06-21T12:56:44.024Z,30.20
2018-06-21T12:59:12.295Z,31.16
2018-06-21T13:01:40.720Z,31.25
2018-06-21T13:04:09.201Z,29.81
2018-06-21T13:06:37.452Z,28.70
2018-06-21T13:09:17.224Z,29.21
2018-06-21T13:12:58.984Z,31.39
2018-06-21T13:15:27.522Z,33.14
2018-06-21T13:17:55.970Z,31.92
2018-06-21T13:20:24.474Z,32.06
2018-06-21T13:22:52.746Z,31.72
2018-06-21T13:25:21.039Z,32.42
2018-06-21T13:27:49.285Z,32.36
2018-06-21T13:30:17.533Z,31.57
2018-06-21T13:32:45.761Z,32.46
2018-06-21T13:35:14.295Z,33.94
2018-06-21T13:37:42.732Z,35.36
2018-06-21T13:40:11.050Z,34.31
2018-06-21T13:42:39.319Z,35.37
2018-06-21T13:45:07.759Z,34.72
2018-06-21T13:47:36.518Z,32.38
2018-06-21T13:50:05.826Z,30.46
2018-06-21T13:52:34.354Z,29.53
2018-06-21T13:55:02.865Z,27.95
2018-06-21T13:57:31.228Z,27.43
2018-06-21T13:59:59.502Z,26.93
2018-06-21T14:02:27.828Z,26.13
2018-06-21T14:04:56.245Z,26.55
2018-06-21T14:13:20.676Z,27.80
2018-06-21T14:15:49.746Z,27.01
2018-06-21T14:18:18.440Z,25.36
2018-06-21T14:20:47.794Z,24.97
2018-06-21T14:23:16.812Z,24.96
2018-06-21T14:25:45.254Z,25.17
2018-06-21T14:28:13.506Z,25.22
2018-06-21T14:30:42.001Z,26.24
2018-06-21T14:33:10.352Z,27.43
2018-06-21T14:35:39.257Z,28.90
2018-06-21T14:38:07.965Z,30.11
2018-06-21T14:40:36.267Z,30.56
2018-06-21T14:43:04.621Z,29.30
2018-06-21T14:45:33.068Z,29.22
2018-06-21T14:48:01.866Z,28.22
2018-06-21T14:50:30.240Z,27.28
2018-06-21T14:52:58.519Z,26.89
2018-06-21T14:55:27.277Z,27.01
2018-06-21T14:57:55.613Z,26.67
2018-06-21T15:00:23.912Z,26.07
2018-06-21T15:02:52.181Z,25.77
2018-06-21T15:05:20.598Z,26.21
2018-06-21T15:07:49.787Z,25.93
2018-06-21T15:10:18.151Z,26.86
2018-06-21T15:12:46.447Z,27.46
2018-06-21T15:15:14.883Z,28.77
2018-06-21T15:17:43.354Z,30.80
2018-06-21T15:20:11.720Z,28.53
2018-06-21T15:22:40.042Z,28.03
2018-06-21T15:25:08.325Z,28.12
2018-06-21T15:27:36.836Z,27.61
2018-06-21T15:30:06.317Z,26.79
2018-06-21T15:32:34.675Z,26.45
2018-06-21T15:35:03.293Z,26.06
2018-06-21T15:37:32.333Z,25.50
2018-06-21T15:40:00.753Z,26.02
2018-06-21T15:42:29.133Z,26.02
2018-06-21T15:44:57.509Z,26.18
2018-06-21T15:47:27.829Z,25.63
2018-06-21T15:49:56.201Z,24.56
2018-06-21T15:52:28.047Z,23.92
2018-06-21T15:54:56.363Z,23.35
2018-06-21T15:57:25.296Z,23.49
2018-06-21T15:59:54.971Z,22.90
2018-06-21T16:02:23.239Z,23.06
2018-06-21T16:04:52.744Z,23.17
2018-06-21T16:07:21.256Z,23.28
2018-06-21T16:09:50.108Z,22.95
2018-06-21T16:12:18.652Z,22.69
2018-06-21T16:14:47.173Z,22.93
2018-06-21T16:17:15.543Z,22.77
2018-06-21T16:19:44.740Z,22.65
2018-06-21T16:22:13.908Z,22.87
2018-06-21T16:24:42.466Z,22.74
2018-06-21T16:27:10.917Z,22.57
2018-06-21T16:29:39.313Z,22.43
2018-06-21T16:32:07.817Z,22.20
2018-06-21T16:34:36.285Z,22.16
2018-06-21T16:37:04.884Z,22.07
2018-06-21T16:39:33.275Z,21.74
2018-06-21T16:42:01.805Z,21.75
2018-06-21T16:44:31.021Z,21.64
2018-06-21T16:46:59.429Z,21.56
2018-06-21T16:49:27.840Z,21.52
2018-06-21T16:51:56.130Z,21.36
2018-06-21T16:54:25.497Z,21.44
2018-06-21T16:56:54.545Z,21.41
2018-06-21T16:59:25.066Z,21.32
2018-06-21T17:01:56.231Z,21.26
2018-06-21T17:04:26.021Z,21.18
2018-06-21T17:06:54.443Z,21.19
2018-06-21T17:09:22.901Z,21.21
2018-06-21T17:11:52.640Z,21.28
2018-06-21T17:14:21.661Z,21.30
2018-06-21T17:16:50.335Z,21.36
2018-06-21T17:19:18.657Z,21.53
2018-06-21T17:21:47.096Z,21.84
2018-06-21T17:24:15.755Z,21.98
2018-06-21T17:26:44.166Z,22.40
2018-06-21T17:29:12.592Z,23.41
2018-06-21T17:31:41.586Z,28.30
2018-06-21T17:34:10.661Z,32.15
2018-06-21T17:36:39.316Z,34.05
2018-06-21T17:39:09.123Z,35.40
2018-06-21T17:41:37.683Z,33.67
2018-06-21T17:44:06.230Z,33.74
2018-06-21T17:46:34.809Z,32.89
2018-06-21T17:49:03.284Z,31.81
2018-06-21T17:51:31.690Z,30.99
2018-06-21T17:54:00.634Z,30.30
2018-06-21T17:56:29.517Z,30.39
2018-06-21T17:58:57.963Z,30.95
2018-06-21T18:01:26.317Z,29.56
2018-06-21T18:03:54.646Z,29.60
2018-06-21T18:06:23.022Z,26.63
2018-06-21T18:08:51.655Z,23.98
2018-06-21T18:11:20.056Z,23.04
2018-06-21T18:13:48.676Z,22.37
2018-06-21T18:16:17.170Z,22.15
2018-06-21T18:18:45.899Z,21.64
2018-06-21T18:21:14.283Z,21.22
2018-06-21T18:23:43.229Z,20.84
2018-06-21T18:26:11.858Z,20.67
2018-06-21T18:28:40.806Z,20.38
2018-06-21T18:31:09.573Z,20.27
2018-06-21T18:33:39.557Z,20.02
2018-06-21T18:36:07.892Z,19.97
2018-06-21T18:38:36.254Z,19.73
2018-06-21T18:41:04.573Z,19.62
2018-06-21T18:43:33.315Z,19.43
2018-06-21T18:46:01.973Z,19.49
2018-06-21T18:48:30.408Z,19.51
2018-06-21T18:50:59.376Z,19.45
2018-06-21T18:53:27.970Z,19.42
2018-06-21T18:56:02.159Z,19.38
2018-06-21T18:58:30.471Z,19.45
2018-06-21T19:00:58.922Z,19.36
2018-06-21T19:03:27.357Z,19.18
2018-06-21T19:05:56.116Z,19.26
2018-06-21T19:08:29.809Z,19.25
2018-06-21T19:11:03.672Z,19.24
2018-06-21T19:13:32.128Z,19.33
2018-06-21T19:16:01.085Z,19.30
2018-06-21T19:18:29.670Z,19.17
2018-06-21T19:20:58.829Z,19.19
2018-06-21T19:23:27.353Z,19.27
2018-06-21T19:25:56.066Z,19.13
2018-06-21T19:28:24.439Z,18.86
2018-06-21T19:30:55.441Z,18.80
2018-06-21T19:33:23.890Z,18.84
2018-06-21T19:35:52.293Z,18.86
2018-06-21T19:38:20.748Z,18.98
2018-06-21T19:40:49.276Z,18.98
2018-06-21T19:43:17.825Z,18.91
2018-06-21T19:45:46.100Z,18.93
2018-06-21T19:48:14.458Z,18.85
2018-06-21T19:50:42.818Z,18.71
2018-06-21T19:53:11.192Z,18.77
2018-06-21T19:55:40.003Z,18.75
2018-06-21T19:58:08.486Z,18.56
2018-06-21T20:00:37.869Z,18.49
2018-06-21T20:03:08.800Z,18.59
2018-06-21T20:05:37.358Z,18.50
2018-06-21T20:08:05.828Z,18.44
2018-06-21T20:10:34.469Z,18.59
2018-06-21T20:13:02.900Z,18.44
2018-06-21T20:15:38.513Z,18.25
2018-06-21T20:18:07.107Z,18.26
2018-06-21T20:20:36.267Z,18.37
2018-06-21T20:23:04.784Z,18.24
2018-06-21T20:25:33.351Z,18.30
2018-06-21T20:28:01.775Z,18.23
2018-06-21T20:30:30.181Z,18.23
2018-06-21T20:32:58.649Z,18.03
2018-06-21T20:35:27.384Z,17.65
2018-06-21T20:37:55.865Z,17.37
2018-06-21T20:40:25.239Z,17.06
2018-06-21T20:42:54.321Z,16.80
2018-06-21T20:45:23.328Z,16.68
2018-06-21T20:47:53.783Z,16.60
2018-06-21T20:50:22.269Z,16.45
2018-06-21T20:52:50.788Z,16.31
2018-06-21T20:55:19.208Z,16.29
2018-06-21T20:57:49.246Z,16.26
2018-06-21T21:00:19.819Z,16.13
2018-06-21T21:02:49.451Z,16.03
2018-06-21T21:05:19.214Z,15.78
2018-06-21T21:07:49.785Z,15.55
2018-06-21T21:10:19.992Z,15.45
2018-06-21T21:12:49.404Z,15.36
2018-06-21T21:15:18.448Z,15.25
2018-06-21T21:17:47.891Z,15.18
2018-06-21T21:20:17.106Z,15.10
2018-06-21T21:22:46.604Z,14.92
2018-06-21T21:25:16.193Z,14.83
2018-06-21T21:27:46.997Z,14.71
2018-06-21T21:30:19.054Z,14.75
2018-06-21T21:33:43.059Z,14.56
2018-06-21T21:36:18.030Z,14.39
2018-06-21T21:38:51.108Z,14.33
2018-06-21T21:41:22.088Z,14.15
2018-06-21T21:43:50.822Z,14.04
2018-06-21T21:46:20.672Z,13.87
2018-06-21T21:48:50.055Z,13.82
2018-06-21T21:51:20.563Z,13.74
2018-06-21T21:53:49.912Z,13.68
2018-06-21T21:56:18.812Z,13.61
2018-06-21T21:58:48.259Z,13.46
2018-06-21T22:01:17.645Z,13.38
2018-06-21T22:03:46.746Z,13.30
2018-06-21T22:06:16.734Z,13.38
2018-06-21T22:08:45.877Z,13.42
2018-06-21T22:11:16.350Z,13.32
2018-06-21T22:13:46.070Z,13.26
2018-06-21T22:16:23.026Z,13.27
2018-06-21T22:18:54.131Z,13.30
2018-06-21T22:21:23.199Z,13.37
2018-06-21T22:23:52.149Z,13.30
2018-06-21T22:26:21.142Z,13.20
2018-06-21T22:28:49.848Z,13.11
2018-06-21T22:31:18.721Z,13.05
2018-06-21T22:33:47.653Z,13.00
2018-06-21T22:36:18.141Z,12.99
2018-06-21T22:38:47.049Z,12.87
2018-06-21T22:41:17.410Z,12.95
2018-06-21T22:43:46.628Z,12.84
2018-06-21T22:46:15.387Z,12.71
2018-06-21T22:48:44.213Z,12.55
2018-06-21T22:51:12.893Z,12.42
2018-06-21T22:53:41.455Z,12.40
2018-06-21T22:56:10.448Z,12.42
2018-06-21T22:58:39.479Z,12.47
2018-06-21T23:01:08.236Z,12.53
2018-06-21T23:03:37.902Z,12.47
2018-06-21T23:06:07.143Z,12.52
2018-06-21T23:08:36.125Z,12.47
2018-06-21T23:11:05.149Z,12.55
2018-06-21T23:13:35.605Z,12.52
2018-06-21T23:16:04.428Z,12.56
2018-06-21T23:18:45.408Z,12.46
2018-06-21T23:21:14.673Z,12.44
2018-06-21T23:23:43.771Z,12.37
2018-06-21T23:26:13.331Z,12.42
2018-06-21T23:28:42.690Z,12.47
2018-06-21T23:31:11.716Z,12.36
2018-06-21T23:33:42.421Z,12.32
2018-06-21T23:36:11.952Z,12.26
2018-06-21T23:38:41.042Z,12.29
2018-06-21T23:41:09.767Z,12.20
2018-06-21T23:43:39.005Z,12.13
2018-06-21T23:46:08.192Z,12.08
2018-06-21T23:48:37.730Z,12.08
2018-06-21T23:51:06.634Z,12.02
2018-06-21T23:53:35.570Z,11.95
2018-06-21T23:56:04.805Z,11.86
2018-06-21T23:58:33.656Z,11.89
